»·PEaware :: FDX572 KSEA-KPDX

FDX572 :: KSEA-KPDX

FLIGHT INFORMATION

Flight Status: Arrived
Operator:
Federal Express
More flights by this operator :: More flights under this callsign
Pilot: Anonymous 8799 (8799)
Aircraft: BEECH AIRCRAFT BEECH AIRLINER
(B190)
More flights by this aircraft type
Origin: KSEA Seattle-Tacoma Intl
United States
Destination: KPDX Portland Intl
United States
More flights between these airports :: More routes between these airports
Route: +SEA HELNS5
File this flight plan on PilotEdge
Remarks:
Altitude:
(Current/Filed)
12,000ft
Speed:
(Current/Filed)
285kts
Departed: 30-Dec-16 04:45 PM
Arrived: 30-Dec-16 05:36 PM
Distance/Time
Traveled:
112nm/0:50
Distance/Time
To Go:
Arrived

Flight Plot

Page will automatically refresh every two minutes.


Map Options




Map Legend


Flown Route
Filed Route
Departure Airport
Arrival Airport
Navaid (VOR, NDB)
Fix

Horizontal Profiles

Position Reports

Time Latitude Longitude Heading Altitude Ground
Speed
30-Dec-16 16:22 47.461105 -122.300955 329 354ft 0kts
30-Dec-16 16:23 47.461105 -122.300955 329 354ft 0kts
30-Dec-16 16:24 47.461105 -122.300955 329 354ft 0kts
30-Dec-16 16:25 47.461105 -122.300955 329 354ft 0kts
30-Dec-16 16:26 47.461105 -122.300955 329 354ft 0kts
30-Dec-16 16:27 47.461105 -122.300955 329 354ft 0kts
30-Dec-16 16:28 47.461105 -122.300955 329 354ft 0kts
30-Dec-16 16:29 47.461105 -122.300955 329 354ft 0kts
30-Dec-16 16:30 47.461105 -122.300955 329 354ft 0kts
30-Dec-16 16:31 47.461105 -122.300955 329 354ft 0kts
30-Dec-16 16:32 47.461105 -122.300955 329 354ft 0kts
30-Dec-16 16:33 47.461105 -122.300955 329 354ft 0kts
30-Dec-16 16:34 47.461105 -122.300955 329 354ft 0kts
30-Dec-16 16:35 47.461105 -122.300955 329 354ft 0kts
30-Dec-16 16:36 47.461492 -122.301550 317 354ft 9kts
30-Dec-16 16:37 47.461672 -122.305949 216 354ft 9kts
30-Dec-16 16:38 47.457606 -122.306206 179 354ft 19kts
30-Dec-16 16:39 47.452081 -122.306239 180 354ft 20kts
30-Dec-16 16:40 47.446298 -122.306409 196 354ft 6kts
30-Dec-16 16:41 47.446049 -122.306548 208 354ft 0kts
30-Dec-16 16:42 47.446049 -122.306548 208 354ft 0kts
30-Dec-16 16:43 47.446049 -122.306548 208 354ft 0kts
30-Dec-16 16:44 47.445768 -122.307915 246 354ft 2kts
30-Dec-16 16:45 47.463549 -122.307530 3 649ft 153kts
30-Dec-16 16:46 47.514670 -122.306161 0 1953ft 220kts
30-Dec-16 16:47 47.579032 -122.309096 346 2724ft 246kts
30-Dec-16 16:48 47.589628 -122.380759 247 3513ft 224kts
30-Dec-16 16:49 47.565393 -122.458153 246 4469ft 195kts
30-Dec-16 16:50 47.542930 -122.527965 233 5442ft 186kts
30-Dec-16 16:51 47.494818 -122.536797 176 6463ft 181kts
30-Dec-16 16:52 47.444980 -122.534215 177 7455ft 179kts
30-Dec-16 16:53 47.399118 -122.519745 137 8456ft 168kts
30-Dec-16 16:54 47.363185 -122.471618 135 9486ft 184kts
30-Dec-16 16:55 47.325368 -122.420508 136 10485ft 186kts
30-Dec-16 16:56 47.287707 -122.369631 135 11477ft 183kts
30-Dec-16 16:57 47.247937 -122.317281 154 11024ft 204kts
30-Dec-16 16:58 47.195106 -122.311668 176 11091ft 188kts
30-Dec-16 16:59 47.143023 -122.308471 176 11009ft 184kts
30-Dec-16 17:00 47.091279 -122.305354 176 11028ft 202kts
30-Dec-16 17:01 47.028803 -122.301254 176 11013ft 242kts
30-Dec-16 17:02 46.959659 -122.296386 176 11010ft 253kts
30-Dec-16 17:03 46.894204 -122.291825 176 11009ft 257kts
30-Dec-16 17:04 46.828999 -122.287335 176 11008ft 253kts
30-Dec-16 17:05 46.761531 -122.282669 176 11008ft 248kts
30-Dec-16 17:06 46.692947 -122.277868 176 11009ft 247kts
30-Dec-16 17:07 46.624543 -122.273204 176 11008ft 246kts
30-Dec-16 17:08 46.556165 -122.268243 176 11007ft 247kts
30-Dec-16 17:09 46.487649 -122.263449 176 10999ft 247kts
30-Dec-16 17:10 46.419673 -122.258671 176 11000ft 246kts
30-Dec-16 17:11 46.351252 -122.253957 178 11000ft 247kts
30-Dec-16 17:12 46.287143 -122.286913 206 11000ft 248kts
30-Dec-16 17:13 46.222184 -122.318832 197 11000ft 248kts
30-Dec-16 17:14 46.156640 -122.349165 197 11000ft 249kts
30-Dec-16 17:15 46.090640 -122.379580 197 11000ft 249kts
30-Dec-16 17:16 46.025063 -122.410223 199 11001ft 250kts
30-Dec-16 17:17 45.960103 -122.443371 199 11001ft 250kts
30-Dec-16 17:18 45.896700 -122.475820 199 11000ft 250kts
30-Dec-16 17:19 45.836830 -122.510957 205 11000ft 250kts
30-Dec-16 17:20 45.775084 -122.552911 205 10998ft 250kts
30-Dec-16 17:21 45.713712 -122.594501 205 10139ft 236kts
30-Dec-16 17:22 45.654917 -122.625212 162 9161ft 241kts
30-Dec-16 17:23 45.631809 -122.543530 95 8238ft 247kts
30-Dec-16 17:24 45.623574 -122.449967 96 7239ft 233kts
30-Dec-16 17:25 45.615756 -122.363586 96 6998ft 209kts
30-Dec-16 17:26 45.608292 -122.281897 95 6999ft 207kts
30-Dec-16 17:27 45.600840 -122.200187 95 6999ft 208kts
30-Dec-16 17:28 45.569149 -122.152511 213 7008ft 214kts
30-Dec-16 17:29 45.532293 -122.223546 236 6341ft 240kts
30-Dec-16 17:30 45.500206 -122.298278 264 5325ft 209kts
30-Dec-16 17:31 45.506654 -122.372463 303 3957ft 174kts
30-Dec-16 17:32 45.528180 -122.424967 301 2925ft 161kts
30-Dec-16 17:33 45.546875 -122.472657 303 1694ft 141kts
30-Dec-16 17:34 45.562753 -122.513062 303 962ft 130kts
30-Dec-16 17:35 45.579028 -122.555137 301 269ft 106kts
30-Dec-16 17:36 45.589462 -122.581414 305 34ft 31kts
30-Dec-16 17:37 45.590308 -122.586466 276 34ft 0kts

Navigation Log

Ident Type
1. KSEA Airport
2. SEA Navaid
3. BUWZO Fix
4. HELNS Fix
5. KRATR Fix
6. BTG Navaid
7. KPDX Airport